sensor_id;sensor_type;location;lat;lon;timestamp;pressure;altitude;pressure_sealevel;temperature;humidity
49835;BME280;35729;52.090;13.162;2022-08-20T00:00:53;100654.72;;;19.25;97.85
49835;BME280;35729;52.090;13.162;2022-08-20T00:03:24;100656.53;;;19.25;97.73
49835;BME280;35729;52.090;13.162;2022-08-20T00:05:56;100657.38;;;19.25;97.59
49835;BME280;35729;52.090;13.162;2022-08-20T00:08:29;100667.09;;;19.26;97.42
49835;BME280;35729;52.090;13.162;2022-08-20T00:10:58;100659.00;;;19.28;97.73
49835;BME280;35729;52.090;13.162;2022-08-20T00:13:31;100648.38;;;19.28;97.73
49835;BME280;35729;52.090;13.162;2022-08-20T00:16:00;100640.38;;;19.28;97.45
49835;BME280;35729;52.090;13.162;2022-08-20T00:18:29;100642.09;;;19.29;97.65
49835;BME280;35729;52.090;13.162;2022-08-20T00:20:58;100643.06;;;19.28;97.72
49835;BME280;35729;52.090;13.162;2022-08-20T00:23:29;100650.94;;;19.29;97.37
49835;BME280;35729;52.090;13.162;2022-08-20T00:25:57;100653.69;;;19.28;97.17
49835;BME280;35729;52.090;13.162;2022-08-20T00:28:26;100661.66;;;19.28;97.41
49835;BME280;35729;52.090;13.162;2022-08-20T00:30:54;100661.66;;;19.28;97.62
49835;BME280;35729;52.090;13.162;2022-08-20T00:33:24;100665.28;;;19.27;97.33
49835;BME280;35729;52.090;13.162;2022-08-20T00:35:54;100662.72;;;19.25;97.43
49835;BME280;35729;52.090;13.162;2022-08-20T00:38:24;100662.72;;;19.25;97.58
49835;BME280;35729;52.090;13.162;2022-08-20T00:40:56;100666.31;;;19.24;97.28
49835;BME280;35729;52.090;13.162;2022-08-20T00:43:29;100663.66;;;19.24;97.20
49835;BME280;35729;52.090;13.162;2022-08-20T00:45:59;100666.41;;;19.23;97.03
49835;BME280;35729;52.090;13.162;2022-08-20T00:48:30;100656.81;;;19.20;97.26
49835;BME280;35729;52.090;13.162;2022-08-20T00:51:03;100655.19;;;19.17;97.22
49835;BME280;35729;52.090;13.162;2022-08-20T00:53:32;100663.25;;;19.16;97.23
49835;BME280;35729;52.090;13.162;2022-08-20T00:56:05;100660.66;;;19.14;97.42
49835;BME280;35729;52.090;13.162;2022-08-20T00:58:36;100655.44;;;19.13;97.74
49835;BME280;35729;52.090;13.162;2022-08-20T01:01:07;100659.94;;;19.12;97.42
49835;BME280;35729;52.090;13.162;2022-08-20T01:03:36;100664.47;;;19.10;97.81
49835;BME280;35729;52.090;13.162;2022-08-20T01:06:07;100662.66;;;19.11;97.46
49835;BME280;35729;52.090;13.162;2022-08-20T01:08:37;100666.28;;;19.10;97.75
49835;BME280;35729;52.090;13.162;2022-08-20T01:11:09;100661.91;;;19.09;97.87
49835;BME280;35729;52.090;13.162;2022-08-20T01:13:42;100664.56;;;19.09;97.47
49835;BME280;35729;52.090;13.162;2022-08-20T01:16:20;100661.03;;;19.08;97.87
49835;BME280;35729;52.090;13.162;2022-08-20T01:18:51;100669.09;;;19.07;97.83
49835;BME280;35729;52.090;13.162;2022-08-20T01:21:22;100663.78;;;19.07;98.01
49835;BME280;35729;52.090;13.162;2022-08-20T01:23:57;100660.28;;;19.06;97.73
49835;BME280;35729;52.090;13.162;2022-08-20T01:26:29;100662.06;;;19.05;98.16
49835;BME280;35729;52.090;13.162;2022-08-20T01:28:59;100657.78;;;19.03;97.88
49835;BME280;35729;52.090;13.162;2022-08-20T01:31:31;100648.97;;;19.02;97.94
49835;BME280;35729;52.090;13.162;2022-08-20T01:34:02;100656.09;;;19.02;98.37
49835;BME280;35729;52.090;13.162;2022-08-20T01:36:35;100665.84;;;19.01;98.13
49835;BME280;35729;52.090;13.162;2022-08-20T01:39:06;100661.47;;;19.00;98.14
49835;BME280;35729;52.090;13.162;2022-08-20T01:41:46;100658.06;;;18.98;98.16
49835;BME280;35729;52.090;13.162;2022-08-20T01:44:17;100656.34;;;18.97;98.38
49835;BME280;35729;52.090;13.162;2022-08-20T01:46:48;100660.75;;;18.98;98.22
49835;BME280;35729;52.090;13.162;2022-08-20T01:49:19;100661.69;;;18.97;98.61
49835;BME280;35729;52.090;13.162;2022-08-20T01:51:49;100651.13;;;18.96;98.23
49835;BME280;35729;52.090;13.162;2022-08-20T01:54:18;100654.63;;;18.96;98.69
49835;BME280;35729;52.090;13.162;2022-08-20T01:56:55;100656.34;;;18.97;98.83
49835;BME280;35729;52.090;13.162;2022-08-20T01:59:25;100661.69;;;18.97;98.41
49835;BME280;35729;52.090;13.162;2022-08-20T02:01:57;100672.31;;;18.97;99.00
49835;BME280;35729;52.090;13.162;2022-08-20T02:04:27;100662.63;;;18.96;98.77
49835;BME280;35729;52.090;13.162;2022-08-20T02:06:58;100671.44;;;18.97;98.97
49835;BME280;35729;52.090;13.162;2022-08-20T02:09:28;100661.69;;;18.97;99.30
49835;BME280;35729;52.090;13.162;2022-08-20T02:12:00;100668.78;;;18.97;99.58
49835;BME280;35729;52.090;13.162;2022-08-20T02:14:30;100671.53;;;18.95;99.47
49835;BME280;35729;52.090;13.162;2022-08-20T02:16:59;100670.69;;;18.95;99.67
49835;BME280;35729;52.090;13.162;2022-08-20T02:19:32;100674.28;;;18.94;99.76
49835;BME280;35729;52.090;13.162;2022-08-20T02:22:08;100677.78;;;18.94;100.00
49835;BME280;35729;52.090;13.162;2022-08-20T02:24:38;100683.19;;;18.93;100.00
49835;BME280;35729;52.090;13.162;2022-08-20T02:27:10;100690.44;;;18.91;100.00
49835;BME280;35729;52.090;13.162;2022-08-20T02:29:39;100690.47;;;18.89;100.00
49835;BME280;35729;52.090;13.162;2022-08-20T02:32:08;100681.63;;;18.88;100.00
49835;BME280;35729;52.090;13.162;2022-08-20T02:34:37;100686.97;;;18.88;100.00
49835;BME280;35729;52.090;13.162;2022-08-20T02:37:06;100677.25;;;18.87;100.00
49835;BME280;35729;52.090;13.162;2022-08-20T02:39:35;100690.56;;;18.87;100.00
49835;BME280;35729;52.090;13.162;2022-08-20T02:42:04;100688.78;;;18.88;100.00
49835;BME280;35729;52.090;13.162;2022-08-20T02:44:36;100690.56;;;18.87;100.00
49835;BME280;35729;52.090;13.162;2022-08-20T02:47:05;100685.25;;;18.87;100.00
49835;BME280;35729;52.090;13.162;2022-08-20T02:49:34;100689.63;;;18.88;100.00
49835;BME280;35729;52.090;13.162;2022-08-20T02:52:03;100676.31;;;18.88;100.00
49835;BME280;35729;52.090;13.162;2022-08-20T02:54:31;100672.81;;;18.88;100.00
49835;BME280;35729;52.090;13.162;2022-08-20T02:57:00;100676.31;;;18.88;100.00
49835;BME280;35729;52.090;13.162;2022-08-20T02:59:29;100674.50;;;18.89;100.00
49835;BME280;35729;52.090;13.162;2022-08-20T03:02:00;100675.38;;;18.89;100.00
49835;BME280;35729;52.090;13.162;2022-08-20T03:04:29;100671.84;;;18.89;100.00
49835;BME280;35729;52.090;13.162;2022-08-20T03:06:57;100674.69;;;18.86;100.00
49835;BME280;35729;52.090;13.162;2022-08-20T03:09:26;100669.47;;;18.84;100.00
49835;BME280;35729;52.090;13.162;2022-08-20T03:11:55;100672.19;;;18.83;100.00
49835;BME280;35729;52.090;13.162;2022-08-20T03:14:24;100676.78;;;18.81;100.00
49835;BME280;35729;52.090;13.162;2022-08-20T03:16:52;100664.50;;;18.78;100.00
49835;BME280;35729;52.090;13.162;2022-08-20T03:19:24;100667.34;;;18.75;100.00
49835;BME280;35729;52.090;13.162;2022-08-20T03:21:53;100663.00;;;18.74;100.00
49835;BME280;35729;52.090;13.162;2022-08-20T03:24:21;100654.22;;;18.72;100.00
49835;BME280;35729;52.090;13.162;2022-08-20T03:26:50;100653.34;;;18.71;100.00
49835;BME280;35729;52.090;13.162;2022-08-20T03:29:18;100666.66;;;18.71;100.00
49835;BME280;35729;52.090;13.162;2022-08-20T03:31:47;100664.88;;;18.72;100.00
49835;BME280;35729;52.090;13.162;2022-08-20T03:34:15;100662.31;;;18.70;100.00
49835;BME280;35729;52.090;13.162;2022-08-20T03:36:46;100663.16;;;18.71;100.00
49835;BME280;35729;52.090;13.162;2022-08-20T03:39:15;100668.38;;;18.72;100.00
49835;BME280;35729;52.090;13.162;2022-08-20T03:41:43;100669.25;;;18.73;100.00
49835;BME280;35729;52.090;13.162;2022-08-20T03:44:12;100669.25;;;18.73;100.00
49835;BME280;35729;52.090;13.162;2022-08-20T03:46:41;100663.81;;;18.75;100.00
49835;BME280;35729;52.090;13.162;2022-08-20T03:49:09;100666.41;;;18.76;100.00
49835;BME280;35729;52.090;13.162;2022-08-20T03:51:38;100661.94;;;18.77;100.00
49835;BME280;35729;52.090;13.162;2022-08-20T03:54:09;100671.72;;;18.76;100.00
49835;BME280;35729;52.090;13.162;2022-08-20T03:56:37;100672.59;;;18.77;100.00
49835;BME280;35729;52.090;13.162;2022-08-20T03:59:06;100676.94;;;18.78;100.00
49835;BME280;35729;52.090;13.162;2022-08-20T04:01:35;100683.22;;;18.77;100.00
49835;BME280;35729;52.090;13.162;2022-08-20T04:04:03;100676.19;;;18.76;100.00
49835;BME280;35729;52.090;13.162;2022-08-20T04:06:32;100685.09;;;18.75;100.00
49835;BME280;35729;52.090;13.162;2022-08-20T04:09:00;100685.25;;;18.71;100.00
49835;BME280;35729;52.090;13.162;2022-08-20T04:11:31;100690.56;;;18.71;100.00
49835;BME280;35729;52.090;13.162;2022-08-20T04:14:00;100689.81;;;18.69;100.00
49835;BME280;35729;52.090;13.162;2022-08-20T04:16:29;100686.28;;;18.69;100.00
49835;BME280;35729;52.090;13.162;2022-08-20T04:18:57;100689.97;;;18.66;100.00
49835;BME280;35729;52.090;13.162;2022-08-20T04:21:26;100688.28;;;18.65;100.00
49835;BME280;35729;52.090;13.162;2022-08-20T04:23:54;100690.06;;;18.65;100.00
49835;BME280;35729;52.090;13.162;2022-08-20T04:26:23;100687.41;;;18.65;100.00
49835;BME280;35729;52.090;13.162;2022-08-20T04:28:54;100691.97;;;18.63;100.00
49835;BME280;35729;52.090;13.162;2022-08-20T04:31:23;100690.25;;;18.62;100.00
49835;BME280;35729;52.090;13.162;2022-08-20T04:33:59;100685.88;;;18.61;100.00
49835;BME280;35729;52.090;13.162;2022-08-20T04:36:27;100689.38;;;18.61;100.00
49835;BME280;35729;52.090;13.162;2022-08-20T04:38:56;100685.97;;;18.59;100.00
49835;BME280;35729;52.090;13.162;2022-08-20T04:41:25;100686.91;;;18.58;100.00
49835;BME280;35729;52.090;13.162;2022-08-20T04:43:56;100688.69;;;18.58;100.00
49835;BME280;35729;52.090;13.162;2022-08-20T04:46:26;100702.06;;;18.56;100.00
49835;BME280;35729;52.090;13.162;2022-08-20T04:48:57;100711.94;;;18.54;100.00
49835;BME280;35729;52.090;13.162;2022-08-20T04:51:26;100713.81;;;18.52;100.00
49835;BME280;35729;52.090;13.162;2022-08-20T04:53:55;100718.34;;;18.50;100.00
49835;BME280;35729;52.090;13.162;2022-08-20T04:56:26;100717.50;;;18.49;100.00
49835;BME280;35729;52.090;13.162;2022-08-20T04:58:59;100712.19;;;18.49;100.00
49835;BME280;35729;52.090;13.162;2022-08-20T05:01:28;100711.41;;;18.47;100.00
49835;BME280;35729;52.090;13.162;2022-08-20T05:03:58;100715.09;;;18.45;100.00
49835;BME280;35729;52.090;13.162;2022-08-20T05:06:33;100720.25;;;18.48;100.00
49835;BME280;35729;52.090;13.162;2022-08-20T05:09:08;100711.50;;;18.46;100.00
49835;BME280;35729;52.090;13.162;2022-08-20T05:11:37;100722.91;;;18.48;100.00
49835;BME280;35729;52.090;13.162;2022-08-20T05:14:08;100720.25;;;18.48;100.00
49835;BME280;35729;52.090;13.162;2022-08-20T05:16:39;100729.06;;;18.48;100.00
49835;BME280;35729;52.090;13.162;2022-08-20T05:19:11;100721.09;;;18.48;100.00
49835;BME280;35729;52.090;13.162;2022-08-20T05:21:40;100725.38;;;18.51;100.00
49835;BME280;35729;52.090;13.162;2022-08-20T05:24:08;100717.31;;;18.52;100.00
49835;BME280;35729;52.090;13.162;2022-08-20T05:26:37;100725.28;;;18.52;100.00
49835;BME280;35729;52.090;13.162;2022-08-20T05:29:08;100721.78;;;18.52;100.00
49835;BME280;35729;52.090;13.162;2022-08-20T05:31:38;100723.50;;;18.53;100.00
49835;BME280;35729;52.090;13.162;2022-08-20T05:34:09;100728.63;;;18.56;100.00
49835;BME280;35729;52.090;13.162;2022-08-20T05:36:39;100729.50;;;18.56;100.00
49835;BME280;35729;52.090;13.162;2022-08-20T05:39:08;100728.47;;;18.59;100.00
49835;BME280;35729;52.090;13.162;2022-08-20T05:41:38;100730.25;;;18.59;100.00
49835;BME280;35729;52.090;13.162;2022-08-20T05:44:10;100734.53;;;18.61;100.00
49835;BME280;35729;52.090;13.162;2022-08-20T05:46:40;100736.25;;;18.62;100.00
49835;BME280;35729;52.090;13.162;2022-08-20T05:49:11;100731.72;;;18.64;100.00
49835;BME280;35729;52.090;13.162;2022-08-20T05:51:40;100739.59;;;18.66;100.00
49835;BME280;35729;52.090;13.162;2022-08-20T05:54:09;100735.13;;;18.66;100.00
49835;BME280;35729;52.090;13.162;2022-08-20T05:56:38;100745.78;;;18.66;100.00
49835;BME280;35729;52.090;13.162;2022-08-20T05:59:10;100742.34;;;18.64;100.00
49835;BME280;35729;52.090;13.162;2022-08-20T06:01:39;100742.34;;;18.64;100.00
49835;BME280;35729;52.090;13.162;2022-08-20T06:04:09;100752.91;;;18.66;100.00
49835;BME280;35729;52.090;13.162;2022-08-20T06:06:55;100737.88;;;18.65;100.00
49835;BME280;35729;52.090;13.162;2022-08-20T06:09:24;100732.56;;;18.65;100.00
49835;BME280;35729;52.090;13.162;2022-08-20T06:11:53;100744.09;;;18.65;100.00
49835;BME280;35729;52.090;13.162;2022-08-20T06:14:24;100750.25;;;18.66;100.00
49835;BME280;35729;52.090;13.162;2022-08-20T06:16:53;100756.41;;;18.66;100.00
49835;BME280;35729;52.090;13.162;2022-08-20T06:19:21;100757.19;;;18.68;100.00
49835;BME280;35729;52.090;13.162;2022-08-20T06:21:50;100752.72;;;18.69;100.00
49835;BME280;35729;52.090;13.162;2022-08-20T06:24:18;100745.72;;;18.68;100.00
49835;BME280;35729;52.090;13.162;2022-08-20T06:26:47;100751.88;;;18.68;100.00
49835;BME280;35729;52.090;13.162;2022-08-20T06:29:15;100747.50;;;18.67;100.00
49835;BME280;35729;52.090;13.162;2022-08-20T06:31:46;100748.44;;;18.66;100.00
49835;BME280;35729;52.090;13.162;2022-08-20T06:34:15;100748.44;;;18.66;100.00
49835;BME280;35729;52.090;13.162;2022-08-20T06:36:43;100751.97;;;18.67;100.00
49835;BME280;35729;52.090;13.162;2022-08-20T06:39:13;100755.38;;;18.69;100.00
49835;BME280;35729;52.090;13.162;2022-08-20T06:41:42;100757.97;;;18.70;100.00
49835;BME280;35729;52.090;13.162;2022-08-20T06:44:10;100759.66;;;18.71;100.00
49835;BME280;35729;52.090;13.162;2022-08-20T06:46:39;100767.56;;;18.73;100.00
49835;BME280;35729;52.090;13.162;2022-08-20T06:49:11;100765.66;;;18.75;100.00
49835;BME280;35729;52.090;13.162;2022-08-20T06:51:39;100764.56;;;18.79;100.00
49835;BME280;35729;52.090;13.162;2022-08-20T06:54:09;100773.47;;;18.78;100.00
49835;BME280;35729;52.090;13.162;2022-08-20T06:56:37;100779.31;;;18.85;100.00
49835;BME280;35729;52.090;13.162;2022-08-20T06:59:06;100789.78;;;18.88;100.00
49835;BME280;35729;52.090;13.162;2022-08-20T07:01:34;100791.47;;;18.89;100.00
49835;BME280;35729;52.090;13.162;2022-08-20T07:04:03;100792.28;;;18.91;100.00
49835;BME280;35729;52.090;13.162;2022-08-20T07:06:35;100793.38;;;18.87;100.00
49835;BME280;35729;52.090;13.162;2022-08-20T07:09:04;100795.88;;;18.90;100.00
49835;BME280;35729;52.090;13.162;2022-08-20T07:11:32;100797.59;;;18.91;100.00
49835;BME280;35729;52.090;13.162;2022-08-20T07:14:01;100801.09;;;18.92;100.00
49835;BME280;35729;52.090;13.162;2022-08-20T07:16:30;100801.03;;;18.93;100.00
49835;BME280;35729;52.090;13.162;2022-08-20T07:18:59;100798.19;;;18.96;100.00
49835;BME280;35729;52.090;13.162;2022-08-20T07:21:27;100793.66;;;18.98;100.00
49835;BME280;35729;52.090;13.162;2022-08-20T07:23:59;100800.50;;;19.02;100.00
49835;BME280;35729;52.090;13.162;2022-08-20T07:26:34;100798.53;;;19.06;100.00
49835;BME280;35729;52.090;13.162;2022-08-20T07:29:03;100802.03;;;19.07;100.00
49835;BME280;35729;52.090;13.162;2022-08-20T07:31:31;100801.88;;;19.10;99.96
49835;BME280;35729;52.090;13.162;2022-08-20T07:34:12;100809.59;;;19.14;100.00
49835;BME280;35729;52.090;13.162;2022-08-20T07:36:41;100814.84;;;19.16;99.57
49835;BME280;35729;52.090;13.162;2022-08-20T07:39:13;100806.88;;;19.16;99.34
49835;BME280;35729;52.090;13.162;2022-08-20T07:41:42;100803.22;;;19.17;99.60
49835;BME280;35729;52.090;13.162;2022-08-20T07:44:27;100809.16;;;19.22;99.49
49835;BME280;35729;52.090;13.162;2022-08-20T07:46:57;100803.66;;;19.25;99.36
49835;BME280;35729;52.090;13.162;2022-08-20T07:49:29;100802.72;;;19.26;99.14
49835;BME280;35729;52.090;13.162;2022-08-20T07:51:57;100799.13;;;19.27;98.82
49835;BME280;35729;52.090;13.162;2022-08-20T07:54:28;100805.28;;;19.28;98.45
49835;BME280;35729;52.090;13.162;2022-08-20T07:56:59;100804.25;;;19.30;98.87
49835;BME280;35729;52.090;13.162;2022-08-20T07:59:28;100799.63;;;19.34;98.32
49835;BME280;35729;52.090;13.162;2022-08-20T08:01:57;100816.06;;;19.41;98.65
49835;BME280;35729;52.090;13.162;2022-08-20T08:04:25;100815.81;;;19.45;98.57
49835;BME280;35729;52.090;13.162;2022-08-20T08:06:54;100823.44;;;19.51;98.04
49835;BME280;35729;52.090;13.162;2022-08-20T08:09:25;100827.72;;;19.54;97.58
49835;BME280;35729;52.090;13.162;2022-08-20T08:11:57;100834.78;;;19.55;97.06
49835;BME280;35729;52.090;13.162;2022-08-20T08:14:30;100832.88;;;19.57;97.42
49835;BME280;35729;52.090;13.162;2022-08-20T08:17:02;100827.44;;;19.59;97.01
49835;BME280;35729;52.090;13.162;2022-08-20T08:19:36;100829.16;;;19.60;96.46
49835;BME280;35729;52.090;13.162;2022-08-20T08:22:07;100833.53;;;19.61;96.95
49835;BME280;35729;52.090;13.162;2022-08-20T08:24:36;100837.06;;;19.61;96.35
49835;BME280;35729;52.090;13.162;2022-08-20T08:27:09;100842.47;;;19.60;96.49
49835;BME280;35729;52.090;13.162;2022-08-20T08:29:38;100839.91;;;19.58;96.68
49835;BME280;35729;52.090;13.162;2022-08-20T08:32:07;100847.91;;;19.58;96.37
49835;BME280;35729;52.090;13.162;2022-08-20T08:34:37;100865.69;;;19.58;96.22
49835;BME280;35729;52.090;13.162;2022-08-20T08:37:05;100862.22;;;19.56;96.58
49835;BME280;35729;52.090;13.162;2022-08-20T08:39:34;100853.41;;;19.55;96.48
49835;BME280;35729;52.090;13.162;2022-08-20T08:42:19;100854.44;;;19.52;96.24
49835;BME280;35729;52.090;13.162;2022-08-20T08:44:52;100858.78;;;19.53;96.56
49835;BME280;35729;52.090;13.162;2022-08-20T08:47:26;100858.63;;;19.57;96.40
49835;BME280;35729;52.090;13.162;2022-08-20T08:49:56;100860.25;;;19.59;96.33
49835;BME280;35729;52.090;13.162;2022-08-20T08:52:28;100870.72;;;19.62;96.04
49835;BME280;35729;52.090;13.162;2022-08-20T08:55:02;100866.16;;;19.64;95.69
49835;BME280;35729;52.090;13.162;2022-08-20T08:57:34;100869.59;;;19.66;95.66
49835;BME280;35729;52.090;13.162;2022-08-20T09:00:25;100864.00;;;19.71;95.61
49835;BME280;35729;52.090;13.162;2022-08-20T09:02:57;100853.25;;;19.73;95.20
49835;BME280;35729;52.090;13.162;2022-08-20T09:05:30;100856.69;;;19.75;95.31
49835;BME280;35729;52.090;13.162;2022-08-20T09:08:03;100863.53;;;19.79;94.80
49835;BME280;35729;52.090;13.162;2022-08-20T09:10:41;100858.94;;;19.82;94.91
49835;BME280;35729;52.090;13.162;2022-08-20T09:13:19;100861.34;;;19.87;94.88
49835;BME280;35729;52.090;13.162;2022-08-20T09:15:47;100861.81;;;19.94;94.00
49835;BME280;35729;52.090;13.162;2022-08-20T09:18:16;100858.03;;;19.98;93.67
49835;BME280;35729;52.090;13.162;2022-08-20T09:20:44;100856.91;;;20.02;93.08
49835;BME280;35729;52.090;13.162;2022-08-20T09:23:13;100862.81;;;20.07;92.75
49835;BME280;35729;52.090;13.162;2022-08-20T09:25:41;100856.34;;;20.11;92.63
49835;BME280;35729;52.090;13.162;2022-08-20T09:28:10;100865.69;;;20.18;91.83
49835;BME280;35729;52.090;13.162;2022-08-20T09:30:41;100864.66;;;20.21;90.86
49835;BME280;35729;52.090;13.162;2022-08-20T09:33:10;100867.09;;;20.24;90.60
49835;BME280;35729;52.090;13.162;2022-08-20T09:35:39;100862.66;;;20.25;90.46
49835;BME280;35729;52.090;13.162;2022-08-20T09:38:09;100862.47;;;20.28;90.29
49835;BME280;35729;52.090;13.162;2022-08-20T09:40:37;100858.75;;;20.30;89.32
49835;BME280;35729;52.090;13.162;2022-08-20T09:43:07;100856.75;;;20.34;89.05
49835;BME280;35729;52.090;13.162;2022-08-20T09:45:36;100859.06;;;20.40;88.54
49835;BME280;35729;52.090;13.162;2022-08-20T09:48:07;100866.84;;;20.43;88.23
49835;BME280;35729;52.090;13.162;2022-08-20T09:50:37;100863.06;;;20.47;87.28
49835;BME280;35729;52.090;13.162;2022-08-20T09:53:08;100868.28;;;20.49;86.81
49835;BME280;35729;52.090;13.162;2022-08-20T09:55:39;100868.19;;;20.50;86.71
49835;BME280;35729;52.090;13.162;2022-08-20T09:58:16;100861.06;;;20.51;86.99
49835;BME280;35729;52.090;13.162;2022-08-20T10:00:47;100867.25;;;20.51;86.71
49835;BME280;35729;52.090;13.162;2022-08-20T10:03:18;100864.69;;;20.50;86.69
49835;BME280;35729;52.090;13.162;2022-08-20T10:05:47;100864.56;;;20.51;86.52
49835;BME280;35729;52.090;13.162;2022-08-20T10:08:15;100867.16;;;20.53;86.09
49835;BME280;35729;52.090;13.162;2022-08-20T10:10:44;100874.47;;;20.49;84.58
49835;BME280;35729;52.090;13.162;2022-08-20T10:13:12;100866.41;;;20.51;85.53
49835;BME280;35729;52.090;13.162;2022-08-20T10:15:41;100851.25;;;20.51;85.42
49835;BME280;35729;52.090;13.162;2022-08-20T10:18:09;100865.53;;;20.50;83.46
49835;BME280;35729;52.090;13.162;2022-08-20T10:20:41;100854.75;;;20.52;84.76
49835;BME280;35729;52.090;13.162;2022-08-20T10:23:09;100860.88;;;20.54;84.58
49835;BME280;35729;52.090;13.162;2022-08-20T10:25:38;100875.13;;;20.53;83.71
49835;BME280;35729;52.090;13.162;2022-08-20T10:28:07;100867.16;;;20.53;83.56
49835;BME280;35729;52.090;13.162;2022-08-20T10:30:35;100872.38;;;20.55;83.51
49835;BME280;35729;52.090;13.162;2022-08-20T10:33:04;100874.97;;;20.56;83.58
49835;BME280;35729;52.090;13.162;2022-08-20T10:35:32;100871.16;;;20.60;83.85
49835;BME280;35729;52.090;13.162;2022-08-20T10:38:03;100868.09;;;20.66;83.67
49835;BME280;35729;52.090;13.162;2022-08-20T10:40:32;100865.22;;;20.70;83.51
49835;BME280;35729;52.090;13.162;2022-08-20T10:43:00;100862.50;;;20.71;82.49
49835;BME280;35729;52.090;13.162;2022-08-20T10:45:29;100866.78;;;20.74;83.43
49835;BME280;35729;52.090;13.162;2022-08-20T10:47:58;100878.22;;;20.76;82.88
49835;BME280;35729;52.090;13.162;2022-08-20T10:50:27;100876.44;;;20.76;82.58
49835;BME280;35729;52.090;13.162;2022-08-20T10:52:56;100894.09;;;20.77;81.72
49835;BME280;35729;52.090;13.162;2022-08-20T10:55:27;100881.75;;;20.76;82.10
49835;BME280;35729;52.090;13.162;2022-08-20T10:57:55;100887.94;;;20.77;81.80
49835;BME280;35729;52.090;13.162;2022-08-20T11:00:24;100884.31;;;20.78;81.79
49835;BME280;35729;52.090;13.162;2022-08-20T11:02:53;100881.75;;;20.76;82.06
49835;BME280;35729;52.090;13.162;2022-08-20T11:05:21;100889.66;;;20.78;82.15
49835;BME280;35729;52.090;13.162;2022-08-20T11:07:50;100888.72;;;20.79;82.02
49835;BME280;35729;52.090;13.162;2022-08-20T11:10:20;100894.03;;;20.79;81.83
49835;BME280;35729;52.090;13.162;2022-08-20T11:12:52;100887.84;;;20.78;81.69
49835;BME280;35729;52.090;13.162;2022-08-20T11:15:20;100890.50;;;20.78;81.72
49835;BME280;35729;52.090;13.162;2022-08-20T11:17:49;100886.78;;;20.81;82.16
49835;BME280;35729;52.090;13.162;2022-08-20T11:20:21;100888.28;;;20.85;82.08
49835;BME280;35729;52.090;13.162;2022-08-20T11:22:51;100898.00;;;20.86;81.47
49835;BME280;35729;52.090;13.162;2022-08-20T11:25:19;100894.50;;;20.86;81.28
49835;BME280;35729;52.090;13.162;2022-08-20T11:27:52;100900.00;;;20.82;80.89
49835;BME280;35729;52.090;13.162;2022-08-20T11:30:23;100898.38;;;20.80;81.42
49835;BME280;35729;52.090;13.162;2022-08-20T11:32:52;100888.59;;;20.80;82.19
49835;BME280;35729;52.090;13.162;2022-08-20T11:35:21;100897.44;;;20.81;81.97
49835;BME280;35729;52.090;13.162;2022-08-20T11:37:50;100896.50;;;20.82;82.35
49835;BME280;35729;52.090;13.162;2022-08-20T11:40:19;100900.78;;;20.85;83.12
49835;BME280;35729;52.090;13.162;2022-08-20T11:42:48;100900.69;;;20.86;83.32
49835;BME280;35729;52.090;13.162;2022-08-20T11:45:19;100898.13;;;20.85;83.14
49835;BME280;35729;52.090;13.162;2022-08-20T11:47:48;100900.56;;;20.88;83.79
49835;BME280;35729;52.090;13.162;2022-08-20T11:50:19;100899.94;;;20.84;83.51
49835;BME280;35729;52.090;13.162;2022-08-20T11:52:48;100899.28;;;20.80;83.30
49835;BME280;35729;52.090;13.162;2022-08-20T11:55:17;100899.16;;;20.82;83.86
49835;BME280;35729;52.090;13.162;2022-08-20T11:57:47;100895.44;;;20.85;83.63
49835;BME280;35729;52.090;13.162;2022-08-20T12:00:20;100896.88;;;20.90;84.10
49835;BME280;35729;52.090;13.162;2022-08-20T12:02:49;100910.78;;;20.95;82.64
49835;BME280;35729;52.090;13.162;2022-08-20T12:05:18;100905.34;;;20.97;82.60
49835;BME280;35729;52.090;13.162;2022-08-20T12:07:47;100910.69;;;20.97;81.33
49835;BME280;35729;52.090;13.162;2022-08-20T12:10:16;100905.44;;;20.95;81.01
49835;BME280;35729;52.090;13.162;2022-08-20T12:12:44;100900.50;;;20.89;78.71
49835;BME280;35729;52.090;13.162;2022-08-20T12:15:13;100898.13;;;20.85;78.80
49835;BME280;35729;52.090;13.162;2022-08-20T12:17:44;100900.13;;;20.81;78.82
49835;BME280;35729;52.090;13.162;2022-08-20T12:20:14;100892.31;;;20.78;78.54
49835;BME280;35729;52.090;13.162;2022-08-20T12:22:43;100893.44;;;20.74;78.22
49835;BME280;35729;52.090;13.162;2022-08-20T12:25:12;100901.44;;;20.74;77.59
49835;BME280;35729;52.090;13.162;2022-08-20T12:27:41;100889.81;;;20.75;77.60
49835;BME280;35729;52.090;13.162;2022-08-20T12:30:12;100904.09;;;20.74;76.46
49835;BME280;35729;52.090;13.162;2022-08-20T12:32:45;100897.16;;;20.71;76.77
49835;BME280;35729;52.090;13.162;2022-08-20T12:35:15;100906.09;;;20.70;76.71
49835;BME280;35729;52.090;13.162;2022-08-20T12:37:45;100903.81;;;20.64;76.52
49835;BME280;35729;52.090;13.162;2022-08-20T12:40:15;100912.84;;;20.61;77.18
49835;BME280;35729;52.090;13.162;2022-08-20T12:42:44;100910.25;;;20.60;76.75
49835;BME280;35729;52.090;13.162;2022-08-20T12:45:14;100918.25;;;20.60;76.58
49835;BME280;35729;52.090;13.162;2022-08-20T12:47:47;100918.19;;;20.61;76.06
49835;BME280;35729;52.090;13.162;2022-08-20T12:50:18;100916.19;;;20.65;76.28